createdAt,value
2022-09-25T00:01:59.647Z,12.30
2022-09-25T00:04:29.825Z,12.90
2022-09-25T00:06:59.363Z,13.77
2022-09-25T00:09:28.910Z,13.93
2022-09-25T00:12:01.077Z,12.90
2022-09-25T00:14:30.639Z,12.23
2022-09-25T00:17:00.246Z,12.23
2022-09-25T00:19:42.421Z,13.40
2022-09-25T00:22:12.035Z,12.88
2022-09-25T00:24:41.563Z,13.60
2022-09-25T00:27:14.313Z,13.73
2022-09-25T00:29:44.429Z,14.02
2022-09-25T00:32:15.333Z,14.00
2022-09-25T00:34:44.896Z,13.75
2022-09-25T00:37:14.451Z,12.52
2022-09-25T00:39:43.980Z,13.85
2022-09-25T00:42:17.422Z,13.80
2022-09-25T00:44:59.255Z,13.60
2022-09-25T00:47:48.300Z,12.45
2022-09-25T00:50:25.746Z,12.75
2022-09-25T00:52:56.093Z,11.38
2022-09-25T00:55:26.108Z,11.18
2022-09-25T00:57:59.455Z,10.75
2022-09-25T01:00:28.999Z,10.30
2022-09-25T01:02:59.341Z,9.93
2022-09-25T01:05:31.594Z,9.40
2022-09-25T01:08:03.419Z,9.20
2022-09-25T01:10:33.089Z,9.30
2022-09-25T01:13:05.472Z,7.80
2022-09-25T01:15:40.777Z,7.50
2022-09-25T01:18:18.556Z,7.85
2022-09-25T01:21:17.982Z,7.38
2022-09-25T01:24:13.922Z,6.70
2022-09-25T01:27:14.949Z,6.20
2022-09-25T01:29:48.702Z,5.47
2022-09-25T01:32:22.663Z,5.50
2022-09-25T01:34:57.109Z,5.68
2022-09-25T01:37:29.901Z,5.25
2022-09-25T01:40:04.725Z,5.30
2022-09-25T01:42:39.755Z,5.10
2022-09-25T01:45:16.711Z,5.27
2022-09-25T01:47:48.981Z,4.90
2022-09-25T01:50:22.180Z,5.43
2022-09-25T01:52:55.066Z,5.78
2022-09-25T01:55:27.273Z,5.22
2022-09-25T01:58:00.299Z,5.50
2022-09-25T02:00:32.682Z,4.40
2022-09-25T02:03:12.155Z,5.47
2022-09-25T02:05:44.991Z,4.50
2022-09-25T02:08:17.836Z,5.47
2022-09-25T02:10:51.245Z,4.40
2022-09-25T02:13:21.616Z,4.90
2022-09-25T02:15:56.229Z,4.97
2022-09-25T02:18:40.060Z,4.68
2022-09-25T02:21:16.465Z,4.13
2022-09-25T02:23:52.440Z,4.03
2022-09-25T02:26:27.434Z,4.60
2022-09-25T02:28:57.433Z,4.70
2022-09-25T02:31:31.783Z,3.78
2022-09-25T02:34:01.400Z,3.92
2022-09-25T02:36:32.363Z,4.45
2022-09-25T02:39:02.604Z,3.30
2022-09-25T02:41:46.176Z,3.75
2022-09-25T02:44:20.780Z,4.15
2022-09-25T02:47:02.273Z,3.17
2022-09-25T02:49:40.284Z,3.28
2022-09-25T02:52:13.680Z,3.83
2022-09-25T02:54:48.308Z,2.90
2022-09-25T02:57:22.590Z,3.83
2022-09-25T02:59:55.705Z,3.60
2022-09-25T03:02:29.166Z,3.45
2022-09-25T03:04:59.329Z,3.20
2022-09-25T03:07:29.205Z,3.55
2022-09-25T03:09:58.266Z,3.50
2022-09-25T03:12:28.214Z,3.08
2022-09-25T03:14:57.719Z,2.92
2022-09-25T03:17:30.074Z,2.70
2022-09-25T03:19:59.635Z,3.55
2022-09-25T03:22:29.222Z,2.88
2022-09-25T03:24:58.793Z,3.28
2022-09-25T03:27:30.012Z,3.28
2022-09-25T03:30:00.118Z,3.30
2022-09-25T03:32:32.370Z,3.10
2022-09-25T03:35:01.922Z,3.20
2022-09-25T03:37:32.192Z,2.80
2022-09-25T03:40:01.863Z,2.80
2022-09-25T03:42:32.303Z,3.00
2022-09-25T03:45:02.351Z,3.20
2022-09-25T03:47:34.579Z,2.97
2022-09-25T03:50:04.145Z,3.00
2022-09-25T03:52:34.076Z,3.10
2022-09-25T03:55:04.543Z,3.08
2022-09-25T03:57:34.087Z,2.95
2022-09-25T04:00:04.060Z,3.60
2022-09-25T04:02:44.441Z,3.47
2022-09-25T04:05:14.289Z,3.87
2022-09-25T04:07:43.829Z,3.45
2022-09-25T04:10:14.766Z,3.00
2022-09-25T04:12:44.430Z,3.20
2022-09-25T04:15:14.878Z,3.50
2022-09-25T04:17:47.499Z,3.80
2022-09-25T04:20:17.098Z,3.70
2022-09-25T04:22:46.653Z,3.47
2022-09-25T04:25:19.570Z,3.80
2022-09-25T04:27:53.916Z,3.30
2022-09-25T04:30:23.696Z,3.17
2022-09-25T04:33:08.411Z,3.30
2022-09-25T04:35:37.955Z,3.20
2022-09-25T04:38:07.684Z,3.30
2022-09-25T04:40:37.294Z,3.20
2022-09-25T04:43:09.070Z,4.37
2022-09-25T04:45:38.896Z,3.90
2022-09-25T04:48:11.477Z,3.30
2022-09-25T04:50:40.995Z,4.00
2022-09-25T04:53:10.571Z,3.00
2022-09-25T04:55:40.414Z,3.90
2022-09-25T04:58:09.986Z,3.03
2022-09-25T05:00:40.893Z,3.60
2022-09-25T05:03:13.160Z,3.80
2022-09-25T05:05:42.706Z,3.15
2022-09-25T05:08:12.771Z,3.40
2022-09-25T05:10:42.898Z,3.60
2022-09-25T05:13:13.432Z,2.90
2022-09-25T05:15:43.057Z,3.30
2022-09-25T05:18:19.035Z,3.60
2022-09-25T05:20:48.664Z,3.25
2022-09-25T05:23:18.721Z,3.33
2022-09-25T05:25:55.204Z,3.70
2022-09-25T05:28:24.851Z,3.92
2022-09-25T05:30:54.552Z,3.25
2022-09-25T05:33:26.692Z,3.63
2022-09-25T05:35:56.257Z,3.20
2022-09-25T05:38:25.828Z,3.13
2022-09-25T05:40:55.729Z,3.88
2022-09-25T05:43:25.458Z,3.30
2022-09-25T05:45:58.073Z,3.53
2022-09-25T05:48:30.376Z,3.50
2022-09-25T05:51:00.718Z,3.50
2022-09-25T05:53:30.959Z,3.50
2022-09-25T05:56:02.254Z,3.67
2022-09-25T05:58:33.453Z,5.20
2022-09-25T06:01:03.754Z,4.97
2022-09-25T06:03:36.130Z,4.68
2022-09-25T06:06:05.667Z,4.47
2022-09-25T06:08:35.910Z,4.30
2022-09-25T06:11:06.017Z,3.72
2022-09-25T06:13:37.057Z,3.70
2022-09-25T06:16:07.598Z,4.28
2022-09-25T06:18:40.084Z,4.05
2022-09-25T06:21:09.591Z,4.50
2022-09-25T06:23:39.184Z,3.90
2022-09-25T06:26:10.322Z,4.55
2022-09-25T06:28:39.864Z,3.75
2022-09-25T06:31:10.072Z,4.40
2022-09-25T06:33:43.820Z,4.40
2022-09-25T06:36:13.338Z,4.60
2022-09-25T06:38:42.829Z,3.97
2022-09-25T06:41:12.471Z,4.30
2022-09-25T06:43:42.017Z,5.93
2022-09-25T06:46:11.639Z,4.10
2022-09-25T06:48:43.917Z,4.40
2022-09-25T06:51:13.837Z,4.50
2022-09-25T06:53:43.353Z,4.57
2022-09-25T06:56:12.868Z,5.45
2022-09-25T06:58:42.497Z,5.30
2022-09-25T07:01:13.732Z,4.93
2022-09-25T07:03:46.501Z,5.00
2022-09-25T07:06:17.438Z,4.88
2022-09-25T07:08:48.047Z,5.25
2022-09-25T07:11:20.223Z,5.43
2022-09-25T07:13:53.101Z,4.80
2022-09-25T07:16:23.489Z,5.05
2022-09-25T07:18:57.209Z,4.38
2022-09-25T07:21:29.458Z,4.80
2022-09-25T07:23:59.408Z,5.10
2022-09-25T07:26:30.645Z,5.40
2022-09-25T07:29:01.554Z,5.13
2022-09-25T07:31:32.982Z,5.70
2022-09-25T07:34:09.346Z,5.15
2022-09-25T07:36:42.622Z,5.60
2022-09-25T07:39:17.496Z,5.85
2022-09-25T07:41:48.068Z,5.13
2022-09-25T07:44:28.434Z,4.68
2022-09-25T07:46:59.447Z,4.10
2022-09-25T07:49:32.088Z,4.18
2022-09-25T07:52:01.910Z,4.30
2022-09-25T07:54:31.449Z,4.07
2022-09-25T07:57:00.992Z,4.40
2022-09-25T07:59:30.537Z,4.20
2022-09-25T08:02:01.326Z,3.70
2022-09-25T08:04:33.473Z,4.20
2022-09-25T08:07:03.458Z,4.63
2022-09-25T08:09:33.069Z,4.40
2022-09-25T08:12:02.791Z,4.00
2022-09-25T08:14:32.910Z,3.90
2022-09-25T08:17:02.583Z,3.60
2022-09-25T08:19:34.853Z,3.40
2022-09-25T08:22:04.410Z,3.80
2022-09-25T08:24:34.057Z,3.72
2022-09-25T08:27:03.590Z,3.50
2022-09-25T08:29:33.691Z,3.22
2022-09-25T08:32:03.712Z,3.40
2022-09-25T08:34:41.165Z,2.90
2022-09-25T08:37:12.192Z,2.50
2022-09-25T08:39:43.036Z,3.10
2022-09-25T08:42:19.697Z,3.20
2022-09-25T08:45:21.110Z,2.55
2022-09-25T08:48:05.260Z,3.20
2022-09-25T08:50:38.160Z,2.80
2022-09-25T08:53:10.143Z,1.90
2022-09-25T08:55:58.276Z,2.10
2022-09-25T08:58:29.789Z,2.87
2022-09-25T09:01:03.327Z,2.25
2022-09-25T09:03:34.884Z,2.83
2022-09-25T09:06:08.836Z,2.83
2022-09-25T09:08:41.073Z,2.28
2022-09-25T09:11:14.431Z,2.70
2022-09-25T09:13:47.272Z,5.00
2022-09-25T09:16:21.032Z,2.00
2022-09-25T09:18:50.621Z,2.58
2022-09-25T09:21:27.261Z,2.53
2022-09-25T09:24:03.668Z,2.30
2022-09-25T09:26:56.380Z,2.17
2022-09-25T09:29:41.378Z,2.00
2022-09-25T09:32:23.815Z,2.08
2022-09-25T09:35:08.873Z,2.33
2022-09-25T09:37:49.944Z,1.80
2022-09-25T09:40:47.459Z,2.20
2022-09-25T09:43:31.718Z,2.30
2022-09-25T09:46:06.137Z,1.80
2022-09-25T09:48:40.752Z,2.00
2022-09-25T09:51:14.044Z,1.35
2022-09-25T09:53:49.287Z,1.90
2022-09-25T09:56:22.099Z,2.30
2022-09-25T09:58:54.305Z,1.75
2022-09-25T10:01:42.426Z,2.00
2022-09-25T10:04:14.591Z,1.55
2022-09-25T10:06:47.680Z,1.85
2022-09-25T10:09:20.609Z,2.45
2022-09-25T10:11:57.027Z,1.80
2022-09-25T10:14:30.443Z,1.60
2022-09-25T10:17:01.133Z,2.28
2022-09-25T10:19:32.032Z,1.60
2022-09-25T10:22:05.597Z,1.70
2022-09-25T10:25:01.753Z,1.80
2022-09-25T10:27:33.666Z,1.50
2022-09-25T10:30:10.083Z,1.40
2022-09-25T10:32:57.723Z,1.70
2022-09-25T10:35:31.072Z,1.50
2022-09-25T10:38:03.081Z,1.20
2022-09-25T10:40:38.458Z,1.70
2022-09-25T10:43:17.396Z,1.50
2022-09-25T10:45:48.916Z,1.30
2022-09-25T10:48:42.294Z,1.65
2022-09-25T10:51:18.236Z,1.70
2022-09-25T10:53:48.476Z,1.88
2022-09-25T10:56:24.357Z,1.70
2022-09-25T10:58:57.601Z,1.85
2022-09-25T11:01:35.379Z,1.70
2022-09-25T11:04:09.776Z,2.07
2022-09-25T11:06:39.957Z,1.45
2022-09-25T11:09:11.797Z,1.70
2022-09-25T11:11:44.198Z,1.60
2022-09-25T11:14:22.314Z,1.83
2022-09-25T11:16:55.383Z,2.40
2022-09-25T11:19:29.184Z,2.08
2022-09-25T11:22:08.119Z,1.55
2022-09-25T11:24:47.187Z,5.30
2022-09-25T11:27:22.471Z,4.32
2022-09-25T11:30:00.645Z,2.40
2022-09-25T11:32:35.036Z,2.05
2022-09-25T11:35:22.657Z,1.75
2022-09-25T11:37:59.069Z,1.65
2022-09-25T11:40:47.866Z,2.40
2022-09-25T11:43:25.884Z,1.50
2022-09-25T11:45:58.288Z,1.70
2022-09-25T11:48:33.011Z,1.65
2022-09-25T11:51:09.776Z,1.83
2022-09-25T11:53:46.231Z,1.58
2022-09-25T11:56:27.653Z,1.20
2022-09-25T11:59:13.769Z,1.30
2022-09-25T12:01:46.759Z,1.30
2022-09-25T12:04:48.859Z,1.60
2022-09-25T12:07:28.564Z,1.20
2022-09-25T12:10:15.008Z,1.43
2022-09-25T12:12:52.431Z,1.40
2022-09-25T12:15:30.245Z,1.65
2022-09-25T12:18:05.217Z,1.40
2022-09-25T12:20:40.988Z,1.60
2022-09-25T12:23:18.078Z,1.50
2022-09-25T12:26:02.631Z,1.60
2022-09-25T12:28:42.269Z,1.60
2022-09-25T12:31:24.822Z,2.30
2022-09-25T12:33:59.275Z,2.10
2022-09-25T12:36:36.425Z,1.80
2022-09-25T12:39:16.669Z,1.40
2022-09-25T12:41:51.991Z,4.93
2022-09-25T12:44:27.397Z,1.50
2022-09-25T12:47:03.955Z,1.88
2022-09-25T12:49:37.687Z,1.95
2022-09-25T12:52:13.683Z,1.27
2022-09-25T12:54:51.052Z,1.50
2022-09-25T12:57:24.032Z,1.10
2022-09-25T12:59:57.276Z,1.20
2022-09-25T13:02:37.140Z,1.40
2022-09-25T13:05:11.962Z,1.10
2022-09-25T13:07:45.515Z,1.20
2022-09-25T13:10:27.439Z,1.50
2022-09-25T13:13:00.568Z,1.40
2022-09-25T13:15:32.760Z,1.33
2022-09-25T13:18:06.266Z,1.17
2022-09-25T13:20:52.832Z,1.30
2022-09-25T13:23:37.651Z,1.03
2022-09-25T13:26:13.810Z,1.10
2022-09-25T13:28:50.773Z,1.10
2022-09-25T13:31:25.879Z,1.30
2022-09-25T13:34:00.400Z,1.35
2022-09-25T13:36:40.085Z,1.00
2022-09-25T13:39:32.406Z,1.40
2022-09-25T13:42:06.613Z,0.90
2022-09-25T13:44:52.587Z,0.80
2022-09-25T13:47:54.890Z,1.02
2022-09-25T13:50:33.155Z,1.10
2022-09-25T13:53:25.398Z,1.20
2022-09-25T13:56:14.971Z,0.90
2022-09-25T13:59:07.797Z,1.40
2022-09-25T14:01:39.824Z,0.80
2022-09-25T14:04:14.192Z,0.95
2022-09-25T14:06:48.052Z,1.00
2022-09-25T14:09:19.942Z,0.93
2022-09-25T14:11:55.101Z,1.10
2022-09-25T14:14:29.800Z,1.25
2022-09-25T14:17:01.083Z,1.17
2022-09-25T14:19:34.035Z,0.90
2022-09-25T14:22:07.212Z,1.10
2022-09-25T14:24:36.908Z,1.30
2022-09-25T14:27:06.570Z,1.30
2022-09-25T14:29:43.279Z,1.15
2022-09-25T14:32:50.378Z,1.17
2022-09-25T14:35:28.958Z,0.85
2022-09-25T14:38:15.093Z,1.33
2022-09-25T14:40:55.619Z,1.00
2022-09-25T14:43:54.648Z,1.23
2022-09-25T14:46:25.072Z,1.10
2022-09-25T14:48:57.224Z,1.20
2022-09-25T14:51:29.701Z,1.30
2022-09-25T14:54:05.515Z,1.00
2022-09-25T14:56:37.513Z,1.00
2022-09-25T14:59:10.522Z,1.00
2022-09-25T15:01:47.670Z,0.90
2022-09-25T15:04:28.710Z,1.10
2022-09-25T15:07:06.039Z,1.00
2022-09-25T15:09:47.434Z,1.10
2022-09-25T15:12:23.527Z,1.13
2022-09-25T15:15:08.361Z,1.02
2022-09-25T15:17:45.117Z,1.40
2022-09-25T15:20:17.162Z,1.02
2022-09-25T15:22:50.218Z,1.00
2022-09-25T15:25:26.394Z,1.30
2022-09-25T15:27:56.124Z,1.60
2022-09-25T15:30:28.519Z,1.20
2022-09-25T15:33:00.905Z,1.10
2022-09-25T15:35:32.689Z,1.20
2022-09-25T15:38:07.913Z,1.50
2022-09-25T15:40:40.272Z,1.52
2022-09-25T15:43:16.102Z,1.05
2022-09-25T15:45:48.371Z,1.10
2022-09-25T15:48:28.222Z,1.40
2022-09-25T15:50:58.796Z,1.40
2022-09-25T15:53:32.102Z,1.30
2022-09-25T15:56:14.671Z,1.30
2022-09-25T15:58:48.932Z,1.65
2022-09-25T16:01:33.868Z,1.20
2022-09-25T16:04:16.350Z,1.10
2022-09-25T16:06:49.847Z,1.30
2022-09-25T16:09:33.112Z,1.30
2022-09-25T16:12:30.464Z,1.80
2022-09-25T16:15:02.249Z,1.20
2022-09-25T16:17:36.023Z,1.45
2022-09-25T16:20:10.019Z,1.40
2022-09-25T16:22:49.324Z,1.33
2022-09-25T16:25:22.158Z,1.77
2022-09-25T16:27:55.312Z,1.30
2022-09-25T16:30:27.143Z,2.10
2022-09-25T16:32:58.813Z,2.00
2022-09-25T16:35:56.831Z,1.45
2022-09-25T16:38:29.667Z,1.50
2022-09-25T16:41:06.866Z,1.50
2022-09-25T16:43:39.743Z,1.70
2022-09-25T16:46:16.518Z,1.70
2022-09-25T16:48:47.476Z,1.30
2022-09-25T16:51:22.370Z,1.60
2022-09-25T16:53:52.484Z,1.77
2022-09-25T16:56:25.912Z,1.40
2022-09-25T16:58:59.264Z,1.60
2022-09-25T17:01:30.527Z,1.63
2022-09-25T17:04:00.385Z,1.70
2022-09-25T17:06:32.648Z,1.50
2022-09-25T17:09:02.501Z,1.50
2022-09-25T17:11:32.065Z,1.80
2022-09-25T17:14:04.204Z,1.60
2022-09-25T17:16:33.850Z,1.92
2022-09-25T17:19:03.501Z,1.90
2022-09-25T17:21:34.053Z,2.47
2022-09-25T17:24:04.165Z,2.80
2022-09-25T17:26:33.758Z,2.30
2022-09-25T17:29:06.085Z,2.10
2022-09-25T17:31:36.999Z,2.00
2022-09-25T17:34:12.257Z,2.20
2022-09-25T17:36:41.924Z,1.80
2022-09-25T17:39:12.004Z,1.77
2022-09-25T17:41:42.277Z,1.40
2022-09-25T17:44:16.784Z,2.00
2022-09-25T17:46:46.670Z,1.67
2022-09-25T17:49:16.484Z,1.90
2022-09-25T17:51:47.308Z,1.80
2022-09-25T17:54:18.052Z,2.30
2022-09-25T17:56:50.296Z,2.00
2022-09-25T17:59:24.962Z,2.50
2022-09-25T18:01:55.540Z,2.40
2022-09-25T18:04:30.310Z,2.22
2022-09-25T18:07:01.722Z,2.00
2022-09-25T18:09:38.163Z,1.88
2022-09-25T18:12:16.386Z,1.98
2022-09-25T18:14:54.445Z,2.00
2022-09-25T18:17:25.744Z,1.92
2022-09-25T18:20:14.584Z,1.80
2022-09-25T18:22:45.858Z,2.10
2022-09-25T18:25:17.008Z,2.10
2022-09-25T18:27:47.976Z,2.00
2022-09-25T18:30:23.879Z,2.10
2022-09-25T18:32:55.033Z,1.60
2022-09-25T18:35:33.645Z,2.13
2022-09-25T18:38:04.947Z,2.22
2022-09-25T18:40:39.175Z,2.00
2022-09-25T18:43:11.019Z,2.17
2022-09-25T18:45:54.226Z,2.40
2022-09-25T18:48:24.218Z,2.40
2022-09-25T18:50:53.767Z,3.00
2022-09-25T18:53:24.632Z,3.15
2022-09-25T18:55:58.176Z,4.43
2022-09-25T18:58:27.874Z,3.97
2022-09-25T19:01:00.340Z,3.80
2022-09-25T19:03:30.351Z,4.32
2022-09-25T19:06:03.091Z,4.10
2022-09-25T19:08:34.443Z,3.15
2022-09-25T19:11:06.631Z,3.38
2022-09-25T19:13:38.913Z,3.00
2022-09-25T19:16:13.140Z,2.88
2022-09-25T19:18:44.041Z,2.80
2022-09-25T19:21:16.095Z,2.40
2022-09-25T19:23:48.422Z,2.40
2022-09-25T19:26:22.486Z,2.65
2022-09-25T19:28:52.869Z,2.35
2022-09-25T19:31:27.157Z,2.17
2022-09-25T19:33:58.314Z,2.90
2022-09-25T19:36:31.118Z,2.30
2022-09-25T19:39:03.283Z,2.55
2022-09-25T19:41:36.358Z,2.70
2022-09-25T19:44:13.628Z,2.72
2022-09-25T19:46:48.848Z,2.80
2022-09-25T19:49:20.397Z,3.20
2022-09-25T19:51:49.985Z,2.80
2022-09-25T19:54:19.538Z,2.83
2022-09-25T19:56:49.144Z,2.40
2022-09-25T19:59:19.013Z,3.00
2022-09-25T20:01:51.281Z,2.80
2022-09-25T20:04:20.889Z,3.20
2022-09-25T20:06:50.480Z,3.17
2022-09-25T20:09:20.110Z,3.03
2022-09-25T20:11:49.667Z,3.57
2022-09-25T20:14:25.234Z,3.03
2022-09-25T20:16:59.144Z,2.70
2022-09-25T20:19:30.747Z,2.80
2022-09-25T20:22:02.159Z,3.70
2022-09-25T20:24:33.452Z,3.13
2022-09-25T20:27:04.401Z,2.67
2022-09-25T20:29:34.361Z,2.78
2022-09-25T20:32:06.688Z,2.90
2022-09-25T20:34:36.293Z,3.20
2022-09-25T20:37:06.720Z,3.40
2022-09-25T20:39:36.597Z,2.75
2022-09-25T20:42:07.716Z,3.38
2022-09-25T20:44:38.822Z,2.90
2022-09-25T20:47:12.692Z,3.10
2022-09-25T20:49:44.432Z,3.00
2022-09-25T20:52:16.001Z,3.40
2022-09-25T20:54:46.624Z,3.50
2022-09-25T20:57:16.248Z,3.20
2022-09-25T20:59:45.942Z,2.90
2022-09-25T21:02:18.485Z,3.20
2022-09-25T21:04:51.158Z,2.60
2022-09-25T21:07:20.860Z,2.90
2022-09-25T21:09:50.625Z,3.40
2022-09-25T21:12:21.610Z,2.90
2022-09-25T21:14:53.753Z,3.90
2022-09-25T21:17:28.049Z,3.30
2022-09-25T21:19:58.608Z,3.17
2022-09-25T21:22:28.512Z,3.17
2022-09-25T21:24:58.046Z,3.27
2022-09-25T21:27:27.683Z,3.20
2022-09-25T21:29:57.228Z,3.45
2022-09-25T21:32:31.548Z,3.30
2022-09-25T21:35:01.104Z,3.40
2022-09-25T21:37:30.921Z,3.63
2022-09-25T21:40:00.461Z,2.92
2022-09-25T21:42:30.079Z,3.60
2022-09-25T21:45:01.123Z,3.27
2022-09-25T21:47:33.320Z,3.47
2022-09-25T21:50:02.886Z,3.40
2022-09-25T21:52:32.460Z,4.20
2022-09-25T21:55:03.428Z,3.90
2022-09-25T21:57:33.233Z,3.40
2022-09-25T22:00:03.080Z,3.88
2022-09-25T22:02:36.960Z,3.70
2022-09-25T22:05:07.049Z,3.95
2022-09-25T22:07:36.783Z,3.97
2022-09-25T22:10:07.102Z,4.15
2022-09-25T22:12:36.716Z,4.05
2022-09-25T22:15:06.703Z,4.47
2022-09-25T22:17:38.856Z,4.18
2022-09-25T22:20:10.456Z,4.50
2022-09-25T22:22:40.080Z,4.10
2022-09-25T22:25:10.951Z,4.70
2022-09-25T22:27:40.507Z,4.40
2022-09-25T22:30:11.731Z,4.22
2022-09-25T22:32:43.872Z,3.88
2022-09-25T22:35:13.413Z,4.15
2022-09-25T22:37:42.947Z,4.75
2022-09-25T22:40:12.882Z,4.80
2022-09-25T22:42:42.490Z,4.30
2022-09-25T22:45:12.820Z,4.43
2022-09-25T22:47:44.941Z,4.47
2022-09-25T22:50:14.515Z,4.50
2022-09-25T22:52:44.094Z,4.20
2022-09-25T22:55:13.653Z,4.43
2022-09-25T22:57:43.238Z,5.00
2022-09-25T23:00:14.217Z,4.47
2022-09-25T23:02:46.433Z,3.90
2022-09-25T23:05:16.185Z,3.85
2022-09-25T23:07:45.923Z,4.53
2022-09-25T23:10:15.473Z,4.28
2022-09-25T23:12:45.027Z,4.05
2022-09-25T23:15:14.594Z,3.45
2022-09-25T23:17:46.708Z,3.80
2022-09-25T23:20:16.257Z,4.63
2022-09-25T23:22:45.803Z,4.32
2022-09-25T23:25:15.371Z,3.72
2022-09-25T23:27:45.013Z,4.47
2022-09-25T23:30:15.238Z,4.38
2022-09-25T23:32:47.618Z,3.97
2022-09-25T23:35:17.309Z,4.00
2022-09-25T23:37:47.156Z,4.15
2022-09-25T23:40:16.747Z,4.45
2022-09-25T23:42:46.383Z,3.97
2022-09-25T23:45:15.906Z,4.60
2022-09-25T23:47:48.112Z,3.80
2022-09-25T23:50:17.662Z,4.50
2022-09-25T23:52:47.271Z,3.90
2022-09-25T23:55:16.927Z,3.80
2022-09-25T23:57:46.458Z,3.97
